Time;durP1;ratioP1;P1;durP2;ratioP2;P2;SDS_P1;SDS_P2;PMS_P1;PMS_P2;Temp;Humidity;BMP_temperature;BMP_pressure;BME280_temperature;BME280_humidity;BME280_pressure;Samples;Min_cycle;Max_cycle;Signal;HPM_P1;HPM_P2
2022/07/13 00:00:27;;;;;;;2.07;1.97;;;18.70;99.90;;;;;;6059986;23;20445;-80
2022/07/13 00:02:54;;;;;;;2.10;1.90;;;18.60;99.90;;;;;;6059470;23;20840;-80
2022/07/13 00:05:21;;;;;;;2.53;2.33;;;18.50;99.90;;;;;;6047492;23;20446;-80
2022/07/13 00:07:49;;;;;;;2.30;2.17;;;18.40;99.90;;;;;;6050183;23;20466;-80
2022/07/13 00:10:16;;;;;;;2.30;2.10;;;18.40;99.90;;;;;;6044271;23;20799;-80
2022/07/13 00:12:44;;;;;;;4.47;2.73;;;18.30;99.90;;;;;;6045256;23;20516;-80
2022/07/13 00:15:11;;;;;;;2.40;2.20;;;18.30;99.90;;;;;;6057224;23;20449;-80
2022/07/13 00:17:38;;;;;;;3.10;2.30;;;18.30;99.90;;;;;;6053045;23;20449;-80
2022/07/13 00:20:07;;;;;;;3.63;2.50;;;18.30;99.90;;;;;;6046269;23;20455;-80
2022/07/13 00:22:34;;;;;;;2.63;2.43;;;18.30;99.90;;;;;;6060974;23;21245;-80
2022/07/13 00:25:01;;;;;;;3.80;2.30;;;18.30;99.90;;;;;;6057142;23;20780;-80
2022/07/13 00:27:28;;;;;;;2.70;2.50;;;18.30;99.90;;;;;;6060496;23;20469;-80
2022/07/13 00:29:56;;;;;;;4.13;3.10;;;18.30;99.90;;;;;;6059376;23;20496;-80
2022/07/13 00:32:23;;;;;;;3.30;2.40;;;18.20;99.90;;;;;;6052917;23;20444;-81
2022/07/13 00:34:50;;;;;;;3.30;3.00;;;18.20;99.90;;;;;;6061309;23;20528;-80
2022/07/13 00:37:17;;;;;;;3.60;2.90;;;18.30;99.90;;;;;;6059845;23;20541;-80
2022/07/13 00:39:44;;;;;;;3.33;3.03;;;18.10;99.90;;;;;;6059809;23;20548;-80
2022/07/13 00:42:11;;;;;;;3.50;3.20;;;18.10;99.90;;;;;;6058122;23;20444;-81
2022/07/13 00:44:38;;;;;;;3.40;3.10;;;18.10;99.90;;;;;;6060150;23;20524;-80
2022/07/13 00:47:07;;;;;;;3.30;3.00;;;18.20;99.90;;;;;;6061512;23;20474;-81
2022/07/13 00:49:34;;;;;;;3.50;3.20;;;18.00;99.90;;;;;;6059725;23;20552;-81
2022/07/13 00:52:01;;;;;;;4.20;3.27;;;18.00;99.90;;;;;;6056394;23;20922;-81
2022/07/13 00:54:30;;;;;;;3.77;3.33;;;17.90;99.90;;;;;;6057412;23;20520;-81
2022/07/13 00:56:58;;;;;;;4.30;3.50;;;17.90;99.90;;;;;;6061420;23;20977;-80
2022/07/13 00:59:26;;;;;;;3.63;3.33;;;17.80;99.90;;;;;;6054832;23;20537;-80
2022/07/13 01:01:54;;;;;;;4.57;3.33;;;17.80;99.90;;;;;;6057498;23;20497;-80
2022/07/13 01:04:24;;;;;;;3.50;3.20;;;17.70;99.90;;;;;;6059025;23;20444;-80
2022/07/13 01:06:53;;;;;;;3.50;3.20;;;17.70;99.90;;;;;;6061231;23;20975;-80
2022/07/13 01:09:21;;;;;;;3.97;3.67;;;17.60;99.90;;;;;;6053983;23;20474;-80
2022/07/13 01:11:48;;;;;;;3.57;3.27;;;17.60;99.90;;;;;;6057662;23;20445;-80
2022/07/13 01:14:16;;;;;;;3.80;3.40;;;17.50;99.90;;;;;;6055081;23;20522;-80
2022/07/13 01:16:43;;;;;;;3.93;3.53;;;17.50;99.90;;;;;;6062191;23;20826;-80
2022/07/13 01:19:12;;;;;;;3.90;3.07;;;17.50;99.90;;;;;;6060350;23;20918;-80
2022/07/13 01:21:44;;;;;;;3.47;3.17;;;17.50;99.90;;;;;;6058214;23;20446;-80
2022/07/13 01:24:13;;;;;;;3.43;2.83;;;17.40;99.90;;;;;;6059460;23;20441;-80
2022/07/13 01:26:41;;;;;;;3.53;3.23;;;17.40;99.90;;;;;;6058348;23;20473;-80
2022/07/13 01:29:08;;;;;;;3.60;2.97;;;17.40;99.90;;;;;;6052105;23;20484;-80
2022/07/13 01:31:37;;;;;;;3.50;2.90;;;17.40;99.90;;;;;;6057190;23;20447;-81
2022/07/13 01:34:05;;;;;;;2.60;2.40;;;17.40;99.90;;;;;;6060558;23;20924;-80
2022/07/13 01:36:34;;;;;;;3.27;3.00;;;17.50;99.90;;;;;;6057984;23;20478;-80
2022/07/13 01:39:01;;;;;;;3.10;2.80;;;17.60;99.90;;;;;;6042010;23;20446;-80
2022/07/13 01:41:30;;;;;;;3.70;3.37;;;17.40;99.90;;;;;;6060014;23;20457;-79
2022/07/13 01:43:57;;;;;;;3.03;2.73;;;17.40;99.90;;;;;;6050887;23;20446;-80
2022/07/13 01:46:25;;;;;;;8.83;2.80;;;17.40;99.90;;;;;;6058602;23;20884;-80
2022/07/13 01:48:53;;;;;;;3.03;2.73;;;17.40;99.90;;;;;;6044411;23;20475;-80
2022/07/13 01:51:20;;;;;;;5.30;3.30;;;17.50;99.90;;;;;;6056389;23;21275;-80
2022/07/13 01:53:47;;;;;;;5.70;3.37;;;17.30;99.90;;;;;;6052241;23;20508;-80
2022/07/13 01:56:14;;;;;;;3.93;3.53;;;17.30;99.90;;;;;;6060718;23;20541;-80
2022/07/13 01:58:43;;;;;;;4.70;3.47;;;17.20;99.90;;;;;;6053885;23;20552;-80
2022/07/13 02:01:09;;;;;;;3.40;3.10;;;17.40;99.90;;;;;;6058729;23;20441;-80
2022/07/13 02:03:37;;;;;;;4.00;3.00;;;17.20;99.90;;;;;;6043075;23;20521;-80
2022/07/13 02:06:05;;;;;;;3.43;3.13;;;17.20;99.90;;;;;;6053411;23;21247;-80
2022/07/13 02:08:32;;;;;;;3.87;3.53;;;17.20;99.90;;;;;;6058992;23;20872;-80
2022/07/13 02:10:59;;;;;;;4.00;3.60;;;17.10;99.90;;;;;;6041591;23;20544;-80
2022/07/13 02:13:26;;;;;;;4.30;3.60;;;17.10;99.90;;;;;;6058816;23;20480;-80
2022/07/13 02:15:55;;;;;;;4.33;3.50;;;17.10;99.90;;;;;;6059521;23;20597;-80
2022/07/13 02:18:22;;;;;;;3.53;3.23;;;17.20;99.90;;;;;;6061613;23;20477;-80
2022/07/13 02:20:49;;;;;;;5.07;3.43;;;17.00;99.90;;;;;;6058246;23;20512;-81
2022/07/13 02:23:16;;;;;;;4.23;3.93;;;17.10;99.90;;;;;;6039212;23;20473;-80
2022/07/13 02:25:44;;;;;;;3.40;3.10;;;16.90;99.90;;;;;;6056302;23;20481;-80
2022/07/13 02:28:11;;;;;;;4.60;4.00;;;16.90;99.90;;;;;;6052451;23;20486;-80
2022/07/13 02:30:38;;;;;;;6.57;4.10;;;16.90;99.90;;;;;;6047214;23;20457;-80
2022/07/13 02:33:06;;;;;;;3.57;3.20;;;16.90;99.90;;;;;;6061003;23;20441;-80
2022/07/13 02:35:33;;;;;;;4.60;3.70;;;16.80;99.90;;;;;;6058408;23;20508;-80
2022/07/13 02:38:00;;;;;;;5.40;4.10;;;16.80;99.90;;;;;;6056912;23;20517;-80
2022/07/13 02:40:27;;;;;;;4.83;3.37;;;16.70;99.90;;;;;;6055339;23;20585;-80
2022/07/13 02:42:54;;;;;;;4.27;3.63;;;16.70;99.90;;;;;;6058084;23;20992;-81
2022/07/13 02:45:21;;;;;;;4.83;3.33;;;16.70;99.90;;;;;;6061017;23;20873;-81
2022/07/13 02:47:49;;;;;;;4.20;3.80;;;16.70;99.90;;;;;;6065749;23;20782;-81
2022/07/13 02:50:17;;;;;;;3.57;3.27;;;16.70;99.90;;;;;;6044140;23;20470;-81
2022/07/13 02:52:44;;;;;;;3.20;3.00;;;16.60;99.90;;;;;;6057805;23;20446;-80
2022/07/13 02:55:11;;;;;;;3.50;3.30;;;16.50;99.90;;;;;;6061737;23;20457;-81
2022/07/13 02:57:38;;;;;;;3.60;3.30;;;16.70;99.90;;;;;;6057878;23;21017;-81
2022/07/13 03:00:07;;;;;;;4.33;3.30;;;16.50;99.90;;;;;;6055324;23;20442;-81
2022/07/13 03:02:34;;;;;;;3.20;2.90;;;16.50;99.90;;;;;;6059130;23;20486;-81
2022/07/13 03:05:02;;;;;;;3.40;3.10;;;16.60;99.90;;;;;;6062005;23;20541;-81
2022/07/13 03:07:30;;;;;;;3.20;2.90;;;16.40;99.90;;;;;;6063913;23;20453;-81
2022/07/13 03:09:58;;;;;;;3.37;3.07;;;16.30;99.90;;;;;;6048800;23;20481;-81
2022/07/13 03:12:24;;;;;;;3.50;3.23;;;16.40;99.90;;;;;;6050435;23;20462;-81
2022/07/13 03:14:51;;;;;;;2.90;2.70;;;16.30;99.90;;;;;;6045484;23;20498;-81
2022/07/13 03:17:19;;;;;;;3.60;2.90;;;16.30;99.90;;;;;;6055644;23;20461;-81
2022/07/13 03:19:46;;;;;;;3.13;2.93;;;16.30;99.90;;;;;;6042226;23;20903;-82
2022/07/13 03:22:12;;;;;;;3.53;3.23;;;16.30;99.90;;;;;;6055279;23;20489;-81
2022/07/13 03:24:41;;;;;;;2.90;2.70;;;16.30;99.90;;;;;;6058540;23;20760;-82
2022/07/13 03:27:09;;;;;;;3.13;2.90;;;16.30;99.90;;;;;;6053185;23;20901;-81
2022/07/13 03:29:36;;;;;;;3.20;2.93;;;16.30;99.90;;;;;;6050835;23;20492;-81
2022/07/13 03:32:04;;;;;;;2.60;2.40;;;16.30;99.90;;;;;;6056941;23;20532;-81
2022/07/13 03:34:31;;;;;;;4.63;2.73;;;16.30;99.90;;;;;;6057999;23;20513;-81
2022/07/13 03:36:57;;;;;;;3.10;2.90;;;16.30;99.90;;;;;;6055677;23;20450;-81
2022/07/13 03:39:25;;;;;;;3.17;2.70;;;16.30;99.90;;;;;;6052798;23;20517;-81
2022/07/13 03:41:53;;;;;;;3.17;2.97;;;16.30;99.90;;;;;;6057484;23;20452;-81
2022/07/13 03:44:20;;;;;;;2.70;2.50;;;16.30;99.90;;;;;;6061120;23;20552;-81
2022/07/13 03:46:47;;;;;;;3.50;2.60;;;16.30;99.90;;;;;;6059505;23;20541;-81
2022/07/13 03:49:14;;;;;;;3.23;2.93;;;16.30;99.90;;;;;;6053319;23;20469;-81
2022/07/13 03:51:42;;;;;;;2.80;2.60;;;16.30;99.90;;;;;;6054871;23;20946;-81
2022/07/13 03:54:10;;;;;;;3.40;2.93;;;16.30;99.90;;;;;;6060805;23;20931;-81
2022/07/13 03:56:36;;;;;;;3.10;2.80;;;16.20;99.90;;;;;;6058867;23;20509;-81
2022/07/13 03:59:05;;;;;;;2.90;2.67;;;16.20;99.90;;;;;;6055501;23;20451;-81
2022/07/13 04:01:32;;;;;;;3.40;2.70;;;16.20;99.90;;;;;;6048917;23;20454;-81
2022/07/13 04:03:59;;;;;;;3.20;2.90;;;16.20;99.90;;;;;;6060710;23;20495;-81
2022/07/13 04:06:27;;;;;;;3.07;2.70;;;16.10;99.90;;;;;;6058150;23;20466;-81
2022/07/13 04:08:54;;;;;;;3.30;3.00;;;16.10;99.90;;;;;;6046897;23;20435;-81
2022/07/13 04:11:21;;;;;;;5.40;2.90;;;16.10;99.90;;;;;;6048046;23;20445;-81
2022/07/13 04:13:47;;;;;;;3.10;2.80;;;16.00;99.90;;;;;;6058450;23;20454;-81
2022/07/13 04:16:16;;;;;;;3.57;3.27;;;16.00;99.90;;;;;;6047875;23;20468;-80
2022/07/13 04:18:43;;;;;;;3.93;2.93;;;16.10;99.90;;;;;;6059330;23;20454;-81
2022/07/13 04:21:11;;;;;;;3.47;2.80;;;16.00;99.90;;;;;;6057389;23;21047;-82
2022/07/13 04:23:38;;;;;;;3.43;3.13;;;16.00;99.90;;;;;;6056189;23;20556;-81
2022/07/13 04:26:06;;;;;;;3.13;2.93;;;16.00;99.90;;;;;;6060542;23;20468;-80
2022/07/13 04:28:33;;;;;;;2.83;2.50;;;16.00;99.90;;;;;;6058651;23;20456;-80
2022/07/13 04:31:00;;;;;;;3.23;2.70;;;16.00;99.90;;;;;;6049952;23;20572;-80
2022/07/13 04:33:29;;;;;;;5.43;3.03;;;16.00;99.90;;;;;;6045855;23;20870;-79
2022/07/13 04:35:56;;;;;;;3.70;2.90;;;16.10;99.90;;;;;;6046740;23;20461;-81
2022/07/13 04:38:23;;;;;;;2.80;2.60;;;16.10;99.90;;;;;;6055048;23;20446;-82
2022/07/13 04:40:50;;;;;;;2.93;2.53;;;16.10;99.90;;;;;;6058402;23;20435;-81
2022/07/13 04:43:17;;;;;;;2.70;2.50;;;16.10;99.90;;;;;;6057918;23;20454;-81
2022/07/13 04:45:44;;;;;;;3.07;2.80;;;16.20;99.90;;;;;;6060647;23;20523;-83
2022/07/13 04:48:11;;;;;;;2.70;2.50;;;16.30;99.90;;;;;;6047630;23;20825;-90
2022/07/13 04:50:39;;;;;;;2.70;2.50;;;16.30;99.90;;;;;;6039568;23;20456;-81
2022/07/13 04:53:07;;;;;;;2.70;2.50;;;16.40;99.90;;;;;;6051094;23;20565;-80
2022/07/13 04:55:37;;;;;;;2.57;2.37;;;16.40;99.90;;;;;;6048855;23;20621;-80
2022/07/13 04:58:04;;;;;;;2.97;2.30;;;16.40;99.90;;;;;;6055584;23;21582;-80
2022/07/13 05:00:31;;;;;;;2.83;2.57;;;16.50;99.90;;;;;;6047243;23;20444;-81
2022/07/13 05:02:58;;;;;;;3.37;2.70;;;16.60;99.90;;;;;;6050466;23;20451;-81
2022/07/13 05:05:25;;;;;;;2.23;2.10;;;16.60;99.90;;;;;;6052472;23;20452;-81
2022/07/13 05:07:54;;;;;;;3.63;2.90;;;16.70;99.90;;;;;;6049300;23;21016;-81
2022/07/13 05:10:21;;;;;;;2.80;2.60;;;16.80;99.90;;;;;;6051041;23;20633;-80
2022/07/13 05:12:48;;;;;;;3.20;2.50;;;16.80;99.90;;;;;;6052419;23;20449;-81
2022/07/13 05:15:15;;;;;;;3.50;2.30;;;16.90;99.90;;;;;;6056375;23;20803;-80
2022/07/13 05:17:42;;;;;;;2.37;2.20;;;16.90;99.90;;;;;;6049717;23;20461;-80
2022/07/13 05:20:10;;;;;;;2.30;2.10;;;17.00;99.90;;;;;;6053031;23;20784;-80
2022/07/13 05:22:37;;;;;;;2.60;2.13;;;17.20;99.90;;;;;;6053043;23;21007;-83
2022/07/13 05:25:06;;;;;;;2.53;2.33;;;17.30;99.90;;;;;;6045793;23;20548;-79
2022/07/13 05:27:33;;;;;;;2.73;2.53;;;17.40;99.90;;;;;;6049973;23;20442;-81
2022/07/13 05:30:01;;;;;;;2.93;2.73;;;17.50;99.90;;;;;;6058325;23;20490;-81
2022/07/13 05:32:28;;;;;;;2.37;2.20;;;17.60;99.90;;;;;;6053891;23;20453;-82
2022/07/13 05:34:56;;;;;;;2.70;2.47;;;17.80;99.90;;;;;;6060063;23;20469;-81
2022/07/13 05:37:28;;;;;;;3.57;2.83;;;17.90;99.90;;;;;;6046432;23;20438;-82
2022/07/13 05:39:56;;;;;;;2.40;2.20;;;18.10;99.90;;;;;;6052331;23;20541;-83
2022/07/13 05:42:25;;;;;;;2.30;2.10;;;18.20;99.90;;;;;;6062095;23;20452;-81
2022/07/13 05:44:52;;;;;;;2.63;2.23;;;18.30;99.90;;;;;;6058488;23;21073;-81
2022/07/13 05:47:19;;;;;;;2.67;2.03;;;18.50;99.90;;;;;;6061255;23;20442;-80
2022/07/13 05:49:46;;;;;;;2.27;1.90;;;18.50;99.90;;;;;;6060558;23;20495;-79
2022/07/13 05:52:13;;;;;;;2.30;2.10;;;18.60;99.90;;;;;;6042747;23;20525;-82
2022/07/13 05:54:41;;;;;;;2.07;1.87;;;18.70;99.90;;;;;;6054488;23;20980;-83
2022/07/13 05:57:08;;;;;;;1.83;1.73;;;18.80;99.90;;;;;;6053281;23;20449;-82
2022/07/13 05:59:37;;;;;;;5.30;2.77;;;18.80;99.90;;;;;;6058474;23;20456;-83
2022/07/13 06:02:04;;;;;;;1.97;1.73;;;18.90;99.90;;;;;;6054514;23;20472;-83
2022/07/13 06:04:31;;;;;;;2.87;1.90;;;18.90;99.90;;;;;;6052669;23;20603;-82
2022/07/13 06:06:58;;;;;;;2.27;2.00;;;18.90;99.90;;;;;;6056067;23;20496;-82
2022/07/13 06:09:25;;;;;;;2.80;2.00;;;19.00;99.90;;;;;;6055727;23;20441;-83
2022/07/13 06:11:52;;;;;;;1.97;1.87;;;19.10;99.90;;;;;;6052726;23;20462;-82
2022/07/13 06:14:19;;;;;;;2.27;1.80;;;19.20;99.90;;;;;;6054886;23;20476;-82
2022/07/13 06:16:47;;;;;;;2.60;1.83;;;19.30;99.90;;;;;;6056192;23;20949;-82
2022/07/13 06:19:15;;;;;;;1.90;1.70;;;19.50;99.90;;;;;;6055469;23;20436;-82
2022/07/13 06:21:42;;;;;;;2.30;1.90;;;19.60;99.90;;;;;;6054143;23;20972;-83
2022/07/13 06:24:09;;;;;;;2.27;1.40;;;19.80;99.90;;;;;;6056055;23;20477;-83
2022/07/13 06:26:36;;;;;;;2.03;1.60;;;20.00;99.90;;;;;;6055739;23;21214;-81
2022/07/13 06:29:03;;;;;;;6.40;1.80;;;20.00;99.90;;;;;;6052683;23;20548;-82
2022/07/13 06:31:30;;;;;;;1.77;1.47;;;20.20;99.90;;;;;;6051457;23;20531;-83
2022/07/13 06:33:58;;;;;;;1.80;1.63;;;20.30;99.90;;;;;;6053566;23;21018;-82
2022/07/13 06:36:25;;;;;;;2.00;1.63;;;20.30;99.90;;;;;;6049803;23;20434;-82
2022/07/13 06:38:52;;;;;;;1.80;1.70;;;20.20;99.90;;;;;;6058587;23;20507;-82
2022/07/13 06:41:20;;;;;;;2.20;1.87;;;20.20;99.90;;;;;;6052238;23;20500;-83
2022/07/13 06:43:47;;;;;;;3.40;1.53;;;20.30;99.90;;;;;;6053869;23;20447;-83
2022/07/13 06:46:14;;;;;;;2.13;1.90;;;20.40;99.90;;;;;;6052993;23;20514;-82
2022/07/13 06:48:41;;;;;;;2.50;1.93;;;20.50;99.90;;;;;;6053194;23;21000;-83
2022/07/13 06:51:11;;;;;;;2.37;1.70;;;20.50;99.90;;;;;;6053496;23;20469;-83
2022/07/13 06:53:38;;;;;;;3.00;2.00;;;20.60;99.90;;;;;;6050409;23;20910;-83
2022/07/13 06:56:05;;;;;;;2.30;1.50;;;20.90;99.90;;;;;;6055724;23;20592;-82
2022/07/13 06:58:32;;;;;;;1.93;1.73;;;21.00;99.90;;;;;;6051649;23;20524;-83
2022/07/13 07:00:59;;;;;;;2.23;1.80;;;21.30;99.90;;;;;;6056000;23;20439;-83
2022/07/13 07:03:26;;;;;;;1.63;1.53;;;21.40;99.90;;;;;;6048335;23;20948;-83
2022/07/13 07:05:53;;;;;;;1.67;1.57;;;21.50;99.90;;;;;;6055092;23;20882;-83
2022/07/13 07:08:22;;;;;;;1.83;1.60;;;21.60;99.90;;;;;;6054498;23;20449;-83
2022/07/13 07:10:49;;;;;;;2.07;1.70;;;21.60;99.90;;;;;;6048990;23;20473;-82
2022/07/13 07:13:16;;;;;;;2.73;1.80;;;21.60;99.90;;;;;;6050482;23;20447;-82
2022/07/13 07:15:43;;;;;;;4.40;1.70;;;21.70;99.90;;;;;;6053119;23;20537;-83
2022/07/13 07:18:12;;;;;;;2.03;1.50;;;21.70;99.90;;;;;;6055626;23;20442;-83
2022/07/13 07:20:39;;;;;;;4.00;1.70;;;21.70;99.90;;;;;;6054321;23;20476;-83
2022/07/13 07:23:07;;;;;;;2.80;1.70;;;21.70;99.90;;;;;;6056652;23;20493;-83
2022/07/13 07:25:35;;;;;;;3.50;1.70;;;21.80;99.90;;;;;;6053026;23;20459;-83
2022/07/13 07:28:02;;;;;;;2.30;1.53;;;22.00;99.90;;;;;;6049334;23;20451;-82
2022/07/13 07:30:29;;;;;;;3.40;1.90;;;22.20;99.90;;;;;;6059374;23;20477;-82
2022/07/13 07:32:57;;;;;;;1.90;1.60;;;22.30;99.90;;;;;;6054383;23;20446;-82
2022/07/13 07:35:24;;;;;;;1.80;1.70;;;22.60;99.90;;;;;;6056702;23;20545;-83
2022/07/13 07:37:51;;;;;;;3.90;1.70;;;22.80;99.90;;;;;;6056707;23;20922;-83
2022/07/13 07:40:18;;;;;;;2.40;1.47;;;23.20;99.90;;;;;;6057321;23;20451;-82
2022/07/13 07:42:46;;;;;;;1.30;1.20;;;23.50;99.90;;;;;;6058363;23;20450;-82
2022/07/13 07:45:13;;;;;;;2.80;1.40;;;24.00;99.90;;;;;;6057563;23;20540;-83
2022/07/13 07:47:40;;;;;;;3.03;1.60;;;24.70;99.90;;;;;;6060740;23;20571;-83
2022/07/13 07:50:08;;;;;;;2.50;1.60;;;25.30;99.90;;;;;;6057801;23;20446;-83
2022/07/13 07:52:35;;;;;;;4.93;1.50;;;25.80;99.90;;;;;;6057449;23;20786;-83
2022/07/13 07:55:03;;;;;;;2.10;1.50;;;26.20;98.60;;;;;;6054493;23;20458;-82
2022/07/13 07:57:30;;;;;;;1.97;1.40;;;26.60;98.20;;;;;;6050293;23;20446;-83
2022/07/13 07:59:58;;;;;;;2.57;1.47;;;26.80;96.70;;;;;;6050289;23;20450;-83
2022/07/13 08:02:26;;;;;;;1.30;1.20;;;27.10;96.40;;;;;;6055515;23;20454;-83
2022/07/13 08:04:53;;;;;;;1.60;1.17;;;27.30;94.40;;;;;;6045505;23;20584;-83
2022/07/13 08:07:20;;;;;;;1.40;1.30;;;27.60;94.60;;;;;;6057217;23;20829;-83
2022/07/13 08:09:47;;;;;;;1.60;1.40;;;27.80;93.80;;;;;;6053906;23;20490;-83
2022/07/13 08:12:14;;;;;;;1.73;1.63;;;28.10;93.80;;;;;;6052144;23;20498;-83
2022/07/13 08:14:41;;;;;;;2.93;1.20;;;28.40;92.90;;;;;;6046034;23;20542;-83
2022/07/13 08:17:10;;;;;;;1.50;1.27;;;28.80;91.00;;;;;;6050238;23;20452;-83
2022/07/13 08:19:37;;;;;;;2.87;1.30;;;29.00;90.00;;;;;;6043375;23;64698;-83
2022/07/13 08:22:04;;;;;;;1.70;1.30;;;29.10;89.10;;;;;;6052232;23;20450;-83
2022/07/13 08:24:31;;;;;;;1.30;1.10;;;28.90;86.70;;;;;;6050668;23;20459;-83
2022/07/13 08:26:58;;;;;;;3.10;1.30;;;28.50;87.00;;;;;;6052019;23;20446;-83
2022/07/13 08:29:25;;;;;;;1.77;1.30;;;28.40;86.80;;;;;;6053159;23;20457;-83
2022/07/13 08:31:52;;;;;;;1.20;1.10;;;28.50;87.70;;;;;;6050705;23;20468;-84
2022/07/13 08:39:50;;;;;;;1.93;1.50;;;28.60;83.60;;;;;;6053866;23;20526;-83
2022/07/13 08:42:17;;;;;;;1.70;1.20;;;28.40;85.60;;;;;;6055111;23;20443;-83
2022/07/13 08:44:46;;;;;;;2.67;1.30;;;28.50;86.00;;;;;;6054619;23;20542;-83
2022/07/13 08:47:14;;;;;;;1.60;1.50;;;28.70;84.80;;;;;;6053794;23;20500;-83
2022/07/13 08:49:43;;;;;;;1.20;1.10;;;29.00;84.20;;;;;;6052458;23;20440;-84
2022/07/13 08:52:11;;;;;;;1.93;1.20;;;29.10;82.20;;;;;;6052575;23;20499;-83
2022/07/13 08:54:38;;;;;;;1.93;1.27;;;29.30;79.80;;;;;;6046643;23;21053;-84
2022/07/13 08:57:05;;;;;;;3.43;1.10;;;29.50;78.50;;;;;;6053207;23;20444;-83
2022/07/13 08:59:33;;;;;;;1.63;1.30;;;29.60;79.80;;;;;;6055402;23;20518;-83
2022/07/13 09:02:00;;;;;;;1.70;1.40;;;30.10;74.60;;;;;;6056993;23;20462;-83
2022/07/13 09:04:28;;;;;;;1.20;1.10;;;30.30;73.30;;;;;;6055386;23;20474;-83
2022/07/13 09:06:56;;;;;;;1.20;1.10;;;30.00;73.60;;;;;;6044675;23;20486;-83
2022/07/13 09:09:35;;;;;;;1.20;1.10;;;30.00;73.10;;;;;;6053296;23;20447;-82
2022/07/13 09:12:16;;;;;;;3.40;1.57;;;30.00;73.10;;;;;;6052835;23;20471;-82
2022/07/13 09:14:45;;;;;;;4.20;1.60;;;30.70;71.80;;;;;;6060647;23;20499;-84
2022/07/13 09:17:38;;;;;;;1.57;1.23;;;31.40;70.80;;;;;;6058617;23;20451;-84
2022/07/13 09:20:22;;;;;;;1.70;1.30;;;32.00;67.50;;;;;;6040889;23;20444;-84
2022/07/13 09:22:52;;;;;;;3.37;1.20;;;32.60;63.50;;;;;;6057422;23;20504;-84
2022/07/13 09:25:27;;;;;;;1.60;1.30;;;33.20;63.00;;;;;;6060509;23;20555;-84
2022/07/13 09:27:54;;;;;;;2.90;1.20;;;33.20;61.40;;;;;;6057933;23;21169;-84
2022/07/13 09:30:23;;;;;;;1.73;1.20;;;33.20;61.00;;;;;;6061333;23;20822;-83
2022/07/13 09:32:51;;;;;;;1.70;1.00;;;33.50;58.00;;;;;;6057895;23;20499;-84
2022/07/13 09:35:20;;;;;;;1.90;1.20;;;33.70;56.80;;;;;;6060662;23;20562;-84
2022/07/13 09:37:48;;;;;;;1.70;1.10;;;33.40;55.80;;;;;;6050788;23;20975;-84
2022/07/13 09:40:18;;;;;;;2.30;1.10;;;33.50;56.30;;;;;;6054530;23;21174;-84
2022/07/13 09:46:08;;;;;;;1.60;1.50;;;33.60;57.40;;;;;;6047324;23;20447;-83
2022/07/13 09:48:25;;;;;;;3.13;1.20;;;34.40;55.20;;;;;;6052093;23;20435;-84
2022/07/13 09:50:55;;;;;;;1.50;1.20;;;35.00;52.60;;;;;;6055036;23;20455;-83
2022/07/13 09:53:28;;;;;;;1.23;1.00;;;34.80;52.40;;;;;;6056159;23;20448;-84
2022/07/13 09:55:58;;;;;;;2.07;1.23;;;34.80;51.70;;;;;;6055621;23;20469;-84
2022/07/13 09:58:29;;;;;;;1.10;1.00;;;35.10;51.70;;;;;;6055205;23;20439;-84
2022/07/13 10:00:58;;;;;;;2.37;1.20;;;35.60;51.40;;;;;;6056183;23;20554;-83
2022/07/13 10:03:25;;;;;;;1.63;1.20;;;35.80;49.40;;;;;;6053193;23;20452;-84
2022/07/13 10:05:54;;;;;;;1.20;1.10;;;36.00;47.60;;;;;;6053214;23;21033;-84
2022/07/13 10:08:22;;;;;;;2.73;1.00;;;36.20;47.20;;;;;;6057112;23;20923;-85
2022/07/13 10:10:49;;;;;;;1.20;1.10;;;36.10;47.10;;;;;;6051278;23;20444;-84
2022/07/13 10:13:17;;;;;;;3.47;1.00;;;36.10;47.80;;;;;;6051849;23;20978;-83
2022/07/13 10:15:45;;;;;;;1.37;0.80;;;36.30;47.20;;;;;;6055674;23;20440;-84
2022/07/13 10:18:18;;;;;;;1.20;1.10;;;36.60;43.20;;;;;;6050977;23;20432;-84
2022/07/13 10:21:02;;;;;;;1.27;1.10;;;36.80;43.60;;;;;;6056749;23;20459;-83
2022/07/13 10:23:35;;;;;;;3.10;0.90;;;36.90;41.50;;;;;;6056722;23;20435;-84
2022/07/13 10:26:03;;;;;;;2.20;1.23;;;36.80;43.30;;;;;;6055659;23;20444;-84
2022/07/13 10:28:32;;;;;;;1.03;0.93;;;36.70;43.50;;;;;;6054337;23;20447;-83
2022/07/13 10:31:28;;;;;;;2.10;1.10;;;36.40;42.00;;;;;;6057028;23;20469;-84
2022/07/13 10:33:55;;;;;;;1.33;1.03;;;36.10;43.20;;;;;;6054790;23;20479;-84
2022/07/13 10:36:57;;;;;;;2.17;1.40;;;35.80;44.00;;;;;;6054486;23;20443;-84
2022/07/13 10:39:25;;;;;;;2.70;1.10;;;35.60;44.40;;;;;;6049033;23;20444;-84
2022/07/13 10:42:04;;;;;;;1.20;0.97;;;35.70;43.70;;;;;;6051644;23;20448;-84
2022/07/13 10:44:39;;;;;;;1.37;1.00;;;36.20;43.00;;;;;;6054338;23;20460;-84
2022/07/13 10:47:08;;;;;;;2.67;0.80;;;36.60;42.10;;;;;;6048564;23;20458;-84
2022/07/13 10:49:47;;;;;;;1.13;0.90;;;36.90;40.50;;;;;;6059681;23;20471;-84
2022/07/13 10:52:47;;;;;;;1.97;1.40;;;37.00;40.50;;;;;;6057157;23;20890;-84
2022/07/13 10:55:31;;;;;;;1.63;1.00;;;37.10;38.40;;;;;;6053781;23;21289;-84
2022/07/13 10:58:00;;;;;;;1.30;1.00;;;36.80;39.40;;;;;;6054760;23;20443;-84
2022/07/13 11:00:44;;;;;;;1.60;1.10;;;37.00;40.10;;;;;;6057895;23;20440;-83
2022/07/13 11:03:37;;;;;;;1.77;1.10;;;37.70;38.80;;;;;;6057731;23;20435;-83
2022/07/13 11:06:07;;;;;;;1.73;1.00;;;37.40;39.00;;;;;;6050068;23;20444;-84
2022/07/13 11:08:34;;;;;;;1.47;1.00;;;36.90;40.10;;;;;;6058182;23;20446;-84
2022/07/13 11:11:12;;;;;;;1.53;1.00;;;36.40;39.20;;;;;;6053856;23;20469;-83
2022/07/13 11:13:40;;;;;;;2.63;0.90;;;36.20;39.20;;;;;;6036780;23;20466;-84
2022/07/13 11:16:09;;;;;;;1.30;1.00;;;36.20;40.10;;;;;;6038300;23;20847;-83
2022/07/13 11:18:38;;;;;;;1.10;0.90;;;36.40;40.00;;;;;;6060837;23;20471;-83
2022/07/13 11:21:09;;;;;;;1.10;1.00;;;36.50;39.40;;;;;;6061942;23;20454;-84
2022/07/13 11:26:53;;;;;;;1.30;0.90;;;37.10;39.50;;;;;;6057944;23;20439;-83
2022/07/13 11:29:25;;;;;;;1.47;0.90;;;37.50;38.20;;;;;;6058648;23;20460;-84
2022/07/13 11:31:58;;;;;;;2.33;0.90;;;38.30;39.20;;;;;;6061078;23;20511;-84
2022/07/13 11:34:26;;;;;;;1.10;1.00;;;39.00;37.10;;;;;;6058421;23;21479;-84
2022/07/13 11:36:55;;;;;;;1.10;1.10;;;38.90;36.50;;;;;;6058272;23;20473;-83
2022/07/13 11:39:23;;;;;;;3.93;1.20;;;38.40;36.20;;;;;;6056488;23;20440;-84
2022/07/13 11:41:51;;;;;;;1.50;0.90;;;38.30;36.90;;;;;;6051946;23;20437;-84
2022/07/13 11:44:21;;;;;;;1.63;1.07;;;38.20;36.60;;;;;;6056384;23;20452;-84
2022/07/13 11:46:48;;;;;;;1.13;1.00;;;38.00;37.30;;;;;;6057117;23;20799;-84
2022/07/13 11:49:17;;;;;;;1.23;1.07;;;38.00;36.50;;;;;;6058666;23;20440;-84
2022/07/13 11:51:45;;;;;;;1.60;1.10;;;38.10;35.50;;;;;;6057129;23;20456;-84
2022/07/13 11:54:13;;;;;;;1.57;0.77;;;38.00;36.20;;;;;;6045783;23;20461;-84
2022/07/13 11:56:47;;;;;;;0.80;0.80;;;37.30;37.10;;;;;;6054259;23;20448;-89
2022/07/13 11:59:15;;;;;;;0.80;0.80;;;36.10;37.30;;;;;;6053722;23;20440;-84
2022/07/13 12:01:50;;;;;;;3.50;1.10;;;35.70;38.60;;;;;;6049848;23;20840;-84
2022/07/13 12:04:25;;;;;;;0.77;0.77;;;35.60;37.10;;;;;;6058728;23;20475;-84
2022/07/13 12:06:52;;;;;;;0.73;0.70;;;35.50;36.90;;;;;;6053879;23;20485;-84
2022/07/13 12:09:20;;;;;;;0.90;0.70;;;35.30;36.80;;;;;;6055992;23;20443;-83
2022/07/13 12:11:47;;;;;;;0.80;0.80;;;35.10;36.70;;;;;;6059021;23;20486;-83
2022/07/13 12:14:15;;;;;;;1.37;0.93;;;35.00;36.30;;;;;;6057832;23;20463;-84
2022/07/13 12:16:43;;;;;;;1.30;0.87;;;35.00;36.80;;;;;;6055849;23;20436;-84
2022/07/13 12:19:11;;;;;;;2.17;1.10;;;35.00;37.90;;;;;;6051142;23;21014;-84
2022/07/13 12:21:39;;;;;;;0.90;0.80;;;35.10;37.50;;;;;;6055302;23;20446;-84
2022/07/13 12:24:07;;;;;;;1.40;0.80;;;35.20;35.70;;;;;;6057272;23;20467;-84
2022/07/13 12:26:34;;;;;;;0.80;0.80;;;35.30;35.20;;;;;;6054804;23;20440;-84
2022/07/13 12:29:01;;;;;;;1.57;0.80;;;35.80;35.90;;;;;;6064164;23;20511;-82
2022/07/13 12:31:28;;;;;;;2.10;1.10;;;36.00;35.40;;;;;;6074352;23;20436;-82
2022/07/13 12:33:55;;;;;;;1.57;0.90;;;35.70;34.80;;;;;;6079500;23;20455;-83
2022/07/13 12:36:25;;;;;;;1.07;0.97;;;35.80;35.20;;;;;;6061465;23;20432;-84
2022/07/13 12:39:04;;;;;;;1.10;0.80;;;36.30;35.50;;;;;;6056507;23;20493;-84
2022/07/13 12:41:33;;;;;;;1.00;0.90;;;36.90;34.90;;;;;;6061604;23;20988;-83
2022/07/13 12:44:03;;;;;;;1.23;0.60;;;36.90;34.30;;;;;;6062915;23;20468;-84
2022/07/13 12:46:50;;;;;;;1.57;0.97;;;36.70;34.50;;;;;;6065356;23;20463;-85
2022/07/13 12:49:18;;;;;;;1.07;0.77;;;36.90;35.90;;;;;;6066216;23;20444;-84
2022/07/13 12:51:50;;;;;;;0.87;0.87;;;37.20;35.70;;;;;;6067961;23;20466;-85
2022/07/13 12:54:34;;;;;;;1.03;0.80;;;37.80;34.10;;;;;;6062192;23;20456;-84
2022/07/13 12:57:09;;;;;;;0.77;0.77;;;38.10;34.10;;;;;;6058374;23;20447;-84
2022/07/13 12:59:37;;;;;;;1.33;0.80;;;37.90;32.90;;;;;;6056181;23;20439;-83
2022/07/13 13:02:04;;;;;;;0.90;0.80;;;37.70;34.00;;;;;;6059387;23;20440;-84
2022/07/13 13:04:31;;;;;;;0.80;0.80;;;37.80;33.20;;;;;;6059244;23;20586;-84
2022/07/13 13:06:58;;;;;;;0.93;0.83;;;37.40;33.50;;;;;;6062823;23;20526;-83